createdAt,value
2023-02-24T00:01:51.447Z,96.32
2023-02-24T00:04:21.804Z,96.80
2023-02-24T00:06:49.331Z,96.86
2023-02-24T00:09:24.835Z,96.99
2023-02-24T00:12:06.264Z,96.30
2023-02-24T00:14:35.990Z,96.66
2023-02-24T00:17:03.154Z,96.79
2023-02-24T00:19:35.341Z,96.58
2023-02-24T00:22:03.144Z,95.78
2023-02-24T00:24:31.172Z,97.32
2023-02-24T00:27:07.662Z,97.31
2023-02-24T00:29:37.662Z,97.75
2023-02-24T00:32:08.095Z,95.49
2023-02-24T00:34:36.516Z,94.99
2023-02-24T00:37:04.148Z,95.90
2023-02-24T00:39:34.827Z,95.04
2023-02-24T00:42:05.677Z,96.23
2023-02-24T00:44:36.281Z,96.91
2023-02-24T00:47:05.013Z,97.86
2023-02-24T00:49:32.637Z,98.33
2023-02-24T00:52:00.280Z,99.27
2023-02-24T00:54:28.492Z,99.46
2023-02-24T00:56:56.391Z,99.70
2023-02-24T00:59:24.198Z,99.93
2023-02-24T01:01:52.069Z,100.00
2023-02-24T01:04:20.243Z,100.00
2023-02-24T01:07:11.904Z,100.00
2023-02-24T01:09:39.820Z,100.00
2023-02-24T01:12:29.200Z,100.00
2023-02-24T01:15:09.190Z,100.00
2023-02-24T01:17:37.721Z,99.56
2023-02-24T01:20:16.000Z,99.98
2023-02-24T01:22:46.853Z,99.90
2023-02-24T01:25:14.436Z,100.00
2023-02-24T01:27:41.941Z,100.00
2023-02-24T01:30:16.847Z,100.00
2023-02-24T01:32:44.382Z,100.00
2023-02-24T01:35:12.307Z,100.00
2023-02-24T01:37:40.121Z,100.00
2023-02-24T01:40:12.131Z,100.00
2023-02-24T01:42:42.465Z,100.00
2023-02-24T01:45:15.018Z,100.00
2023-02-24T01:47:41.607Z,99.84
2023-02-24T01:50:09.877Z,98.61
2023-02-24T01:52:37.628Z,98.04
2023-02-24T01:55:13.395Z,97.84
2023-02-24T01:57:41.535Z,98.09
2023-02-24T02:00:20.441Z,97.65
2023-02-24T02:02:54.679Z,96.05
2023-02-24T02:05:22.678Z,96.88
2023-02-24T02:07:51.376Z,97.65
2023-02-24T02:10:19.556Z,97.85
2023-02-24T02:12:46.666Z,98.32
2023-02-24T02:15:14.528Z,98.58
2023-02-24T02:17:59.657Z,98.64
2023-02-24T02:20:32.726Z,98.87
2023-02-24T02:23:18.077Z,98.37
2023-02-24T02:26:05.955Z,97.93
2023-02-24T02:28:45.539Z,97.29
2023-02-24T02:31:46.773Z,97.52
2023-02-24T02:34:27.751Z,98.46
2023-02-24T02:37:00.535Z,97.88
2023-02-24T02:39:47.318Z,98.22
2023-02-24T02:42:38.734Z,98.55
2023-02-24T02:45:33.731Z,99.14
2023-02-24T02:48:17.624Z,99.14
2023-02-24T02:51:18.965Z,99.85
2023-02-24T02:53:59.393Z,99.71
2023-02-24T02:56:30.916Z,99.43
2023-02-24T02:58:58.707Z,100.00
2023-02-24T03:01:28.530Z,100.00
2023-02-24T03:03:56.922Z,100.00
2023-02-24T03:06:28.130Z,100.00
2023-02-24T03:09:11.529Z,100.00
2023-02-24T03:11:59.778Z,100.00
2023-02-24T03:14:28.847Z,100.00
2023-02-24T03:16:55.894Z,100.00
2023-02-24T03:19:37.349Z,100.00
2023-02-24T03:22:12.518Z,100.00
2023-02-24T03:24:41.150Z,100.00
2023-02-24T03:27:34.482Z,100.00
2023-02-24T03:30:09.717Z,100.00
2023-02-24T03:32:58.612Z,100.00
2023-02-24T03:35:38.181Z,100.00
2023-02-24T03:38:06.426Z,100.00
2023-02-24T03:40:36.157Z,100.00
2023-02-24T03:43:06.014Z,100.00
2023-02-24T03:45:35.816Z,100.00
2023-02-24T03:48:03.725Z,100.00
2023-02-24T03:50:32.508Z,100.00
2023-02-24T03:53:31.441Z,100.00
2023-02-24T03:56:22.245Z,100.00
2023-02-24T03:59:15.334Z,100.00
2023-02-24T04:01:51.103Z,100.00
2023-02-24T04:04:30.429Z,100.00
2023-02-24T04:07:10.062Z,100.00
2023-02-24T04:10:15.554Z,100.00
2023-02-24T04:12:50.282Z,100.00
2023-02-24T04:15:23.991Z,100.00
2023-02-24T04:18:07.287Z,100.00
2023-02-24T04:20:35.381Z,100.00
2023-02-24T04:23:13.096Z,100.00
2023-02-24T04:25:40.498Z,100.00
2023-02-24T04:28:10.562Z,100.00
2023-02-24T04:30:40.950Z,100.00
2023-02-24T04:33:08.260Z,100.00
2023-02-24T04:35:35.778Z,100.00
2023-02-24T04:38:03.737Z,100.00
2023-02-24T04:40:31.486Z,100.00
2023-02-24T04:42:59.060Z,100.00
2023-02-24T04:45:29.257Z,100.00
2023-02-24T04:48:01.147Z,100.00
2023-02-24T04:50:33.585Z,100.00
2023-02-24T04:53:14.872Z,100.00
2023-02-24T04:55:48.987Z,100.00
2023-02-24T04:58:26.086Z,100.00
2023-02-24T05:00:54.495Z,100.00
2023-02-24T05:03:23.202Z,100.00
2023-02-24T05:06:15.212Z,100.00
2023-02-24T05:08:42.830Z,100.00
2023-02-24T05:11:34.996Z,100.00
2023-02-24T05:14:04.695Z,100.00
2023-02-24T05:16:32.505Z,100.00
2023-02-24T05:19:18.771Z,100.00
2023-02-24T05:21:46.921Z,100.00
2023-02-24T05:24:17.237Z,100.00
2023-02-24T05:26:44.963Z,100.00
2023-02-24T05:29:13.301Z,100.00
2023-02-24T05:31:41.303Z,100.00
2023-02-24T05:34:09.044Z,100.00
2023-02-24T05:36:40.671Z,100.00
2023-02-24T05:39:12.004Z,100.00
2023-02-24T05:41:42.328Z,100.00
2023-02-24T05:44:23.866Z,100.00
2023-02-24T05:46:56.900Z,100.00
2023-02-24T05:49:33.281Z,100.00
2023-02-24T05:52:01.960Z,100.00
2023-02-24T05:54:35.836Z,100.00
2023-02-24T05:57:09.352Z,100.00
2023-02-24T05:59:37.391Z,100.00
2023-02-24T06:02:09.672Z,100.00
2023-02-24T06:04:45.739Z,100.00
2023-02-24T06:07:14.311Z,100.00
2023-02-24T06:09:45.461Z,100.00
2023-02-24T06:12:16.625Z,100.00
2023-02-24T06:14:45.194Z,100.00
2023-02-24T06:17:15.244Z,100.00
2023-02-24T06:19:43.553Z,100.00
2023-02-24T06:22:13.389Z,100.00
2023-02-24T06:24:44.472Z,100.00
2023-02-24T06:27:19.307Z,100.00
2023-02-24T06:29:50.166Z,100.00
2023-02-24T06:32:22.846Z,100.00
2023-02-24T06:34:52.091Z,100.00
2023-02-24T06:37:20.110Z,100.00
2023-02-24T06:39:48.106Z,100.00
2023-02-24T06:42:16.116Z,100.00
2023-02-24T06:44:43.967Z,100.00
2023-02-24T06:47:14.520Z,100.00
2023-02-24T06:49:42.970Z,100.00
2023-02-24T06:54:44.861Z,100.00
2023-02-24T06:57:12.950Z,100.00
2023-02-24T06:59:41.288Z,100.00
2023-02-24T07:02:11.148Z,100.00
2023-02-24T07:04:45.948Z,100.00
2023-02-24T07:07:17.863Z,100.00
2023-02-24T07:09:48.814Z,100.00
2023-02-24T07:12:21.255Z,100.00
2023-02-24T07:14:50.586Z,100.00
2023-02-24T07:17:20.724Z,100.00
2023-02-24T07:19:49.332Z,100.00
2023-02-24T07:22:17.715Z,100.00
2023-02-24T07:24:46.555Z,100.00
2023-02-24T07:27:22.734Z,100.00
2023-02-24T07:29:53.730Z,100.00
2023-02-24T07:32:22.669Z,100.00
2023-02-24T07:34:51.320Z,100.00
2023-02-24T07:37:20.755Z,100.00
2023-02-24T07:39:49.404Z,100.00
2023-02-24T07:42:18.319Z,100.00
2023-02-24T07:44:49.347Z,100.00
2023-02-24T07:47:17.714Z,100.00
2023-02-24T07:49:45.988Z,100.00
2023-02-24T07:52:14.267Z,100.00
2023-02-24T07:54:43.369Z,100.00
2023-02-24T07:57:14.343Z,100.00
2023-02-24T07:59:45.406Z,100.00
2023-02-24T08:02:14.103Z,100.00
2023-02-24T08:04:48.386Z,100.00
2023-02-24T08:07:17.311Z,100.00
2023-02-24T08:09:45.650Z,100.00
2023-02-24T08:12:18.398Z,100.00
2023-02-24T08:14:51.003Z,100.00
2023-02-24T08:17:23.307Z,100.00
2023-02-24T08:20:01.185Z,100.00
2023-02-24T08:22:37.559Z,100.00
2023-02-24T08:25:07.397Z,100.00
2023-02-24T08:27:39.167Z,100.00
2023-02-24T08:30:09.775Z,100.00
2023-02-24T08:32:45.130Z,100.00
2023-02-24T08:35:20.446Z,100.00
2023-02-24T08:38:09.793Z,100.00
2023-02-24T08:40:50.304Z,100.00
2023-02-24T08:43:33.272Z,100.00
2023-02-24T08:46:19.165Z,100.00
2023-02-24T08:48:50.204Z,100.00
2023-02-24T08:51:23.546Z,100.00
2023-02-24T08:53:55.747Z,100.00
2023-02-24T08:56:26.495Z,100.00
2023-02-24T08:59:05.804Z,100.00
2023-02-24T09:01:36.919Z,100.00
2023-02-24T09:04:08.765Z,100.00
2023-02-24T09:06:37.538Z,100.00
2023-02-24T09:09:18.921Z,99.19
2023-02-24T09:12:10.691Z,98.10
2023-02-24T09:14:38.309Z,97.03
2023-02-24T09:17:11.423Z,96.06
2023-02-24T09:19:52.611Z,96.05
2023-02-24T09:22:33.093Z,96.27
2023-02-24T09:25:19.187Z,95.32
2023-02-24T09:27:48.312Z,95.77
2023-02-24T09:30:35.479Z,95.66
2023-02-24T09:33:42.370Z,95.35
2023-02-24T09:36:44.956Z,94.17
2023-02-24T09:39:14.878Z,94.16
2023-02-24T09:42:18.154Z,93.44
2023-02-24T09:45:11.485Z,92.49
2023-02-24T09:47:40.161Z,92.29
2023-02-24T09:50:55.151Z,91.98
2023-02-24T09:53:14.791Z,91.42
2023-02-24T09:56:17.869Z,91.67
2023-02-24T09:59:07.321Z,91.79
2023-02-24T10:01:36.973Z,91.63
2023-02-24T10:04:49.178Z,89.99
2023-02-24T10:07:19.237Z,89.02
2023-02-24T10:10:19.903Z,89.16
2023-02-24T10:12:53.912Z,88.00
2023-02-24T10:15:41.157Z,87.59
2023-02-24T10:18:27.451Z,86.55
2023-02-24T10:21:48.369Z,85.67
2023-02-24T10:24:24.550Z,83.69
2023-02-24T10:27:16.851Z,84.06
2023-02-24T10:30:05.868Z,84.34
2023-02-24T10:32:51.255Z,82.87
2023-02-24T10:35:20.692Z,81.09
2023-02-24T10:37:49.308Z,78.27
2023-02-24T10:40:26.502Z,77.62
2023-02-24T10:43:10.759Z,76.92
2023-02-24T10:45:45.243Z,76.53
2023-02-24T10:48:42.745Z,74.02
2023-02-24T10:51:20.141Z,72.23
2023-02-24T10:54:08.857Z,72.76
2023-02-24T10:56:55.644Z,71.70
2023-02-24T10:59:48.275Z,69.23
2023-02-24T11:02:29.725Z,69.80
2023-02-24T11:05:03.556Z,70.53
2023-02-24T11:07:45.405Z,71.07
2023-02-24T11:10:25.903Z,70.34
2023-02-24T11:13:25.885Z,68.36
2023-02-24T11:16:12.370Z,70.02
2023-02-24T11:18:40.101Z,70.37
2023-02-24T11:21:09.436Z,70.82
2023-02-24T11:23:45.156Z,70.44
2023-02-24T11:26:21.563Z,70.93
2023-02-24T11:29:17.542Z,69.44
2023-02-24T11:32:18.951Z,68.95
2023-02-24T11:34:51.736Z,68.23
2023-02-24T11:37:43.094Z,66.64
2023-02-24T11:40:19.801Z,64.40
2023-02-24T11:42:56.210Z,64.46
2023-02-24T11:45:43.157Z,64.67
2023-02-24T11:48:25.335Z,64.72
2023-02-24T11:51:06.514Z,64.05
2023-02-24T11:53:58.063Z,64.14
2023-02-24T11:56:31.434Z,62.81
2023-02-24T11:59:30.782Z,62.95
2023-02-24T12:02:17.604Z,63.73
2023-02-24T12:04:56.697Z,62.80
2023-02-24T12:07:54.728Z,61.21
2023-02-24T12:10:47.693Z,61.01
2023-02-24T12:13:41.011Z,60.60
2023-02-24T12:16:08.006Z,61.28
2023-02-24T12:18:37.352Z,61.03
2023-02-24T12:21:24.961Z,60.22
2023-02-24T12:23:53.782Z,58.52
2023-02-24T12:26:25.227Z,58.74
2023-02-24T12:29:16.248Z,58.66
2023-02-24T12:31:54.499Z,58.17
2023-02-24T12:34:36.232Z,56.74
2023-02-24T12:37:24.520Z,56.97
2023-02-24T12:40:01.753Z,57.47
2023-02-24T12:43:02.299Z,58.28
2023-02-24T12:45:46.375Z,57.78
2023-02-24T12:48:28.814Z,57.87
2023-02-24T12:51:21.511Z,58.63
2023-02-24T12:54:09.755Z,58.07
2023-02-24T12:57:00.911Z,58.12
2023-02-24T12:59:29.475Z,58.59
2023-02-24T13:02:30.556Z,59.30
2023-02-24T13:05:08.657Z,58.18
2023-02-24T13:07:39.696Z,58.45
2023-02-24T13:10:36.760Z,55.86
2023-02-24T13:13:15.690Z,54.56
2023-02-24T13:16:10.225Z,53.02
2023-02-24T13:18:39.667Z,51.43
2023-02-24T13:21:15.787Z,51.15
2023-02-24T13:23:43.468Z,50.78
2023-02-24T13:26:10.568Z,50.51
2023-02-24T13:28:38.523Z,52.11
2023-02-24T13:31:10.351Z,53.40
2023-02-24T13:33:42.192Z,53.50
2023-02-24T13:36:36.321Z,54.65
2023-02-24T13:39:03.262Z,56.29
2023-02-24T13:41:30.221Z,56.36
2023-02-24T13:43:58.469Z,55.52
2023-02-24T13:46:26.655Z,53.95
2023-02-24T13:49:14.571Z,52.07
2023-02-24T13:51:50.571Z,51.20
2023-02-24T13:54:29.368Z,50.63
2023-02-24T13:57:34.844Z,49.93
2023-02-24T14:00:12.619Z,50.16
2023-02-24T14:02:42.902Z,50.96
2023-02-24T14:05:17.413Z,50.75
2023-02-24T14:07:44.717Z,49.72
2023-02-24T14:10:23.252Z,48.36
2023-02-24T14:12:51.569Z,49.84
2023-02-24T14:15:26.253Z,50.39
2023-02-24T14:18:20.256Z,50.49
2023-02-24T14:20:47.959Z,50.99
2023-02-24T14:23:22.394Z,51.83
2023-02-24T14:25:52.800Z,52.70
2023-02-24T14:28:23.349Z,53.44
2023-02-24T14:30:55.012Z,53.93
2023-02-24T14:33:33.137Z,54.54
2023-02-24T14:36:01.315Z,55.21
2023-02-24T14:38:32.319Z,54.97
2023-02-24T14:40:59.758Z,55.46
2023-02-24T14:43:26.960Z,55.36
2023-02-24T14:45:54.804Z,55.78
2023-02-24T14:48:52.534Z,56.10
2023-02-24T14:51:25.109Z,56.67
2023-02-24T14:53:54.645Z,57.32
2023-02-24T14:56:22.578Z,57.28
2023-02-24T14:58:54.819Z,57.66
2023-02-24T15:01:34.627Z,58.01
2023-02-24T15:04:11.342Z,59.23
2023-02-24T15:06:41.075Z,59.57
2023-02-24T15:09:42.644Z,60.28
2023-02-24T15:12:29.917Z,60.82
2023-02-24T15:14:57.806Z,60.75
2023-02-24T15:17:25.354Z,61.90
2023-02-24T15:19:55.846Z,62.08
2023-02-24T15:22:25.822Z,62.23
2023-02-24T15:24:55.848Z,62.36
2023-02-24T15:27:27.988Z,62.82
2023-02-24T15:30:07.982Z,62.79
2023-02-24T15:32:37.710Z,62.71
2023-02-24T15:35:05.610Z,62.99
2023-02-24T15:37:42.062Z,63.03
2023-02-24T15:40:21.731Z,63.28
2023-02-24T15:42:56.780Z,64.23
2023-02-24T15:45:23.782Z,63.56
2023-02-24T15:47:55.611Z,64.59
2023-02-24T15:50:23.619Z,64.48
2023-02-24T15:52:51.222Z,64.60
2023-02-24T15:55:20.000Z,65.56
2023-02-24T15:57:48.405Z,65.34
2023-02-24T16:00:18.354Z,65.75
2023-02-24T16:02:47.144Z,65.83
2023-02-24T16:05:14.710Z,66.09
2023-02-24T16:07:44.205Z,65.96
2023-02-24T16:10:27.725Z,66.35
2023-02-24T16:12:56.151Z,66.34
2023-02-24T16:15:31.921Z,67.09
2023-02-24T16:17:59.442Z,66.91
2023-02-24T16:20:28.505Z,67.34
2023-02-24T16:22:57.361Z,67.77
2023-02-24T16:25:24.893Z,68.11
2023-02-24T16:27:57.387Z,68.41
2023-02-24T16:30:30.528Z,69.29
2023-02-24T16:32:59.584Z,69.87
2023-02-24T16:35:31.522Z,70.72
2023-02-24T16:38:00.868Z,70.73
2023-02-24T16:40:33.650Z,71.68
2023-02-24T16:43:01.697Z,71.79
2023-02-24T16:45:29.890Z,72.17
2023-02-24T16:47:59.121Z,72.69
2023-02-24T16:50:31.759Z,73.17
2023-02-24T16:52:59.985Z,73.29
2023-02-24T16:55:27.579Z,73.70
2023-02-24T16:57:55.562Z,73.86
2023-02-24T17:00:24.398Z,74.37
2023-02-24T17:02:52.375Z,74.63
2023-02-24T17:05:21.032Z,74.47
2023-02-24T17:07:48.974Z,74.72
2023-02-24T17:10:17.772Z,75.04
2023-02-24T17:12:45.455Z,75.44
2023-02-24T17:15:17.397Z,75.86
2023-02-24T17:17:44.941Z,75.76
2023-02-24T17:20:16.080Z,75.54
2023-02-24T17:22:44.132Z,75.82
2023-02-24T17:25:19.079Z,76.61
2023-02-24T17:27:47.366Z,76.78
2023-02-24T17:30:15.957Z,76.81
2023-02-24T17:32:44.157Z,76.56
2023-02-24T17:35:12.168Z,76.60
2023-02-24T17:37:40.319Z,76.54
2023-02-24T17:40:09.789Z,76.53
2023-02-24T17:42:37.759Z,77.07
2023-02-24T17:45:08.176Z,77.18
2023-02-24T17:47:36.579Z,77.81
2023-02-24T17:50:04.192Z,77.49
2023-02-24T17:52:32.156Z,77.79
2023-02-24T17:55:00.013Z,77.92
2023-02-24T17:57:29.474Z,78.29
2023-02-24T17:59:57.120Z,78.44
2023-02-24T18:02:24.560Z,78.54
2023-02-24T18:04:52.844Z,79.00
2023-02-24T18:07:21.239Z,79.78
2023-02-24T18:09:49.266Z,80.02
2023-02-24T18:12:18.704Z,81.10
2023-02-24T18:14:51.354Z,81.21
2023-02-24T18:17:24.506Z,81.46
2023-02-24T18:19:55.613Z,82.13
2023-02-24T18:22:23.237Z,81.97
2023-02-24T18:24:51.124Z,82.35
2023-02-24T18:27:17.992Z,82.89
2023-02-24T18:29:45.966Z,82.79
2023-02-24T18:32:14.046Z,83.28
2023-02-24T18:34:41.760Z,83.04
2023-02-24T18:37:09.380Z,83.06
2023-02-24T18:39:37.661Z,83.08
2023-02-24T18:42:05.954Z,83.14
2023-02-24T18:44:33.884Z,82.76
2023-02-24T18:47:01.960Z,82.65
2023-02-24T18:49:29.996Z,82.83
2023-02-24T18:51:59.662Z,82.50
2023-02-24T18:54:27.304Z,82.40
2023-02-24T18:56:55.317Z,82.57
2023-02-24T18:59:23.276Z,82.33
2023-02-24T19:01:51.548Z,82.50
2023-02-24T19:04:19.583Z,82.87
2023-02-24T19:06:49.121Z,82.87
2023-02-24T19:09:16.549Z,83.07
2023-02-24T19:11:44.343Z,83.34
2023-02-24T19:14:12.210Z,83.29
2023-02-24T19:16:40.432Z,83.47
2023-02-24T19:19:08.075Z,84.05
2023-02-24T19:21:35.899Z,84.45
2023-02-24T19:24:08.117Z,84.38
2023-02-24T19:26:35.765Z,84.19
2023-02-24T19:29:04.062Z,84.52
2023-02-24T19:31:32.567Z,84.98
2023-02-24T19:34:23.673Z,84.95
2023-02-24T19:36:51.603Z,84.48
2023-02-24T19:39:19.205Z,85.28
2023-02-24T19:41:49.473Z,85.49
2023-02-24T19:44:16.930Z,86.00
2023-02-24T19:46:44.794Z,86.33
2023-02-24T19:49:12.369Z,85.82
2023-02-24T19:51:39.872Z,86.10
2023-02-24T19:54:08.219Z,86.26
2023-02-24T19:56:36.790Z,86.20
2023-02-24T19:59:05.909Z,86.06
2023-02-24T20:01:33.624Z,85.90
2023-02-24T20:04:02.485Z,85.75
2023-02-24T20:06:31.924Z,86.25
2023-02-24T20:08:59.980Z,85.77
2023-02-24T20:11:29.761Z,86.54
2023-02-24T20:13:56.976Z,87.11
2023-02-24T20:16:26.264Z,86.80
2023-02-24T20:18:55.564Z,86.46
2023-02-24T20:21:23.751Z,86.78
2023-02-24T20:23:51.348Z,86.81
2023-02-24T20:26:19.827Z,87.24
2023-02-24T20:28:47.979Z,86.98
2023-02-24T20:31:17.642Z,86.80
2023-02-24T20:33:45.598Z,87.19
2023-02-24T20:36:24.381Z,87.08
2023-02-24T20:38:52.676Z,87.06
2023-02-24T20:41:20.801Z,87.93
2023-02-24T20:43:49.142Z,88.35
2023-02-24T20:46:24.268Z,88.58
2023-02-24T20:48:53.381Z,88.02
2023-02-24T20:51:20.991Z,87.79
2023-02-24T20:53:57.337Z,87.55
2023-02-24T20:56:26.869Z,87.04
2023-02-24T20:59:00.384Z,87.25
2023-02-24T21:01:27.954Z,87.24
2023-02-24T21:03:55.973Z,87.20
2023-02-24T21:06:23.857Z,87.30
2023-02-24T21:08:53.416Z,87.37
2023-02-24T21:11:21.592Z,87.39
2023-02-24T21:13:49.321Z,87.18
2023-02-24T21:16:18.069Z,87.45
2023-02-24T21:18:46.594Z,87.49
2023-02-24T21:21:15.380Z,87.62
2023-02-24T21:23:42.553Z,87.29
2023-02-24T21:26:09.840Z,87.13
2023-02-24T21:28:37.459Z,87.18
2023-02-24T21:31:11.677Z,87.42
2023-02-24T21:33:39.896Z,87.25
2023-02-24T21:36:09.832Z,87.15
2023-02-24T21:38:38.275Z,87.31
2023-02-24T21:41:07.126Z,87.36
2023-02-24T21:43:35.197Z,88.04
2023-02-24T21:46:03.681Z,88.14
2023-02-24T21:48:31.563Z,87.86
2023-02-24T21:51:00.549Z,88.21
2023-02-24T21:53:28.545Z,88.48
2023-02-24T21:56:04.556Z,89.04
2023-02-24T21:58:32.878Z,89.47
2023-02-24T22:01:01.238Z,89.62
2023-02-24T22:03:29.218Z,90.16
2023-02-24T22:05:56.863Z,90.50
2023-02-24T22:08:24.961Z,90.61
2023-02-24T22:10:59.759Z,90.66
2023-02-24T22:13:27.594Z,91.40
2023-02-24T22:15:55.195Z,92.03
2023-02-24T22:18:23.207Z,92.39
2023-02-24T22:20:51.142Z,92.73
2023-02-24T22:23:18.992Z,93.30
2023-02-24T22:25:46.926Z,93.59
2023-02-24T22:28:14.893Z,93.42
2023-02-24T22:30:42.889Z,93.65
2023-02-24T22:33:10.863Z,93.97
2023-02-24T22:35:38.900Z,93.97
2023-02-24T22:38:06.519Z,93.74
2023-02-24T22:40:34.052Z,94.12
2023-02-24T22:43:01.805Z,94.08
2023-02-24T22:45:29.892Z,94.39
2023-02-24T22:47:59.417Z,94.10
2023-02-24T22:50:27.928Z,94.41
2023-02-24T22:52:56.196Z,94.48
2023-02-24T22:55:25.115Z,94.76
2023-02-24T22:57:53.113Z,95.24
2023-02-24T23:00:23.313Z,95.51
2023-02-24T23:02:50.872Z,96.25
2023-02-24T23:05:19.041Z,96.49
2023-02-24T23:07:48.575Z,96.67
2023-02-24T23:10:17.075Z,96.59
2023-02-24T23:12:44.971Z,96.36
2023-02-24T23:15:13.819Z,96.61
2023-02-24T23:17:42.300Z,96.76
2023-02-24T23:20:12.892Z,96.42
2023-02-24T23:22:40.902Z,96.50
2023-02-24T23:25:31.172Z,96.92
2023-02-24T23:27:59.462Z,97.30
2023-02-24T23:30:27.042Z,96.68
2023-02-24T23:32:54.994Z,96.46
2023-02-24T23:35:22.581Z,97.44
2023-02-24T23:37:50.798Z,97.22
2023-02-24T23:40:25.904Z,97.79
2023-02-24T23:42:53.322Z,98.20
2023-02-24T23:45:21.276Z,99.06
2023-02-24T23:47:49.234Z,99.79
2023-02-24T23:50:18.449Z,99.96
2023-02-24T23:52:46.085Z,100.00
2023-02-24T23:55:13.813Z,100.00
2023-02-24T23:57:42.210Z,99.98
